createdAt,value
2023-04-18T00:03:06.718Z,7.94
2023-04-18T00:08:05.878Z,7.86
2023-04-18T00:13:06.163Z,7.87
2023-04-18T00:18:08.371Z,7.82
2023-04-18T00:23:06.317Z,7.81
2023-04-18T00:28:06.112Z,7.77
2023-04-18T00:33:06.953Z,7.72
2023-04-18T00:38:06.294Z,7.69
2023-04-18T00:43:08.613Z,7.68
2023-04-18T00:48:06.225Z,7.61
2023-04-18T00:53:06.584Z,7.62
2023-04-18T00:58:09.001Z,7.57
2023-04-18T01:03:08.790Z,7.5
2023-04-18T01:08:09.599Z,7.48
2023-04-18T01:13:19.613Z,7.45
2023-04-18T01:18:07.641Z,7.4
2023-04-18T01:23:07.838Z,7.36
2023-04-18T01:28:07.983Z,7.32
2023-04-18T01:33:06.886Z,7.34
2023-04-18T01:38:11.639Z,7.23
2023-04-18T01:43:06.280Z,7.21
2023-04-18T01:48:06.805Z,7.21
2023-04-18T01:53:06.136Z,7.19
2023-04-18T01:58:06.350Z,7.15
2023-04-18T02:03:06.305Z,7.12
2023-04-18T02:08:06.184Z,7.09
2023-04-18T02:13:06.929Z,7.06
2023-04-18T02:18:06.899Z,7.03
2023-04-18T02:23:09.032Z,7.04
2023-04-18T02:28:06.263Z,7.03
2023-04-18T02:33:16.485Z,6.99
2023-04-18T02:38:06.470Z,6.95
2023-04-18T02:43:06.309Z,6.92
2023-04-18T02:48:07.934Z,6.89
2023-04-18T02:53:06.580Z,6.84
2023-04-18T02:58:06.497Z,6.82
2023-04-18T03:03:08.491Z,6.76
2023-04-18T03:08:11.054Z,6.72
2023-04-18T03:13:05.964Z,6.68
2023-04-18T03:18:06.460Z,6.68
2023-04-18T03:23:10.914Z,6.66
2023-04-18T03:28:05.935Z,6.63
2023-04-18T03:33:17.331Z,6.61
2023-04-18T03:38:09.397Z,6.62
2023-04-18T03:43:09.316Z,6.61
2023-04-18T03:48:06.543Z,6.58
2023-04-18T03:53:08.094Z,6.53
2023-04-18T03:58:08.849Z,6.51
2023-04-18T04:03:07.220Z,6.49
2023-04-18T04:08:10.285Z,6.46
2023-04-18T04:13:06.422Z,6.49
2023-04-18T04:18:06.555Z,6.49
2023-04-18T04:23:13.757Z,6.51
2023-04-18T04:28:06.800Z,6.53
2023-04-18T04:33:09.892Z,6.53
2023-04-18T04:38:13.374Z,6.58
2023-04-18T04:43:06.969Z,6.67
2023-04-18T04:48:09.544Z,6.72
2023-04-18T04:53:06.730Z,6.76
2023-04-18T04:58:09.633Z,6.79
2023-04-18T05:03:09.173Z,6.82
2023-04-18T05:08:10.492Z,6.81
2023-04-18T05:13:10.011Z,6.81
2023-04-18T05:18:09.209Z,6.77
2023-04-18T05:23:07.013Z,6.77
2023-04-18T05:28:08.178Z,6.81
2023-04-18T05:33:07.830Z,6.8
2023-04-18T05:38:11.204Z,6.78
2023-04-18T05:43:06.466Z,6.84
2023-04-18T05:48:07.240Z,6.92
2023-04-18T05:53:08.606Z,6.98
2023-04-18T05:58:06.330Z,7.04
2023-04-18T06:03:08.548Z,7.1
2023-04-18T06:08:20.310Z,7.14
2023-04-18T06:13:10.845Z,7.21
2023-04-18T06:18:06.109Z,7.28
2023-04-18T06:23:08.720Z,7.32
2023-04-18T06:28:06.055Z,7.37
2023-04-18T06:33:13.462Z,7.42
2023-04-18T06:38:15.599Z,7.44
2023-04-18T06:43:06.377Z,7.53
2023-04-18T06:48:10.708Z,7.63
2023-04-18T06:53:06.082Z,7.83
2023-04-18T06:58:09.034Z,8.04
2023-04-18T07:03:13.358Z,8.19
2023-04-18T07:08:14.098Z,8.26
2023-04-18T07:13:06.413Z,8.25
2023-04-18T07:18:06.406Z,8.24
2023-04-18T07:23:06.454Z,8.3
2023-04-18T07:28:08.991Z,8.36
2023-04-18T07:33:06.703Z,8.46
2023-04-18T07:38:18.955Z,8.57
2023-04-18T07:43:05.937Z,8.64
2023-04-18T07:48:08.992Z,8.69
2023-04-18T07:53:06.207Z,8.74
2023-04-18T07:58:08.968Z,8.82
2023-04-18T08:03:06.772Z,8.89
2023-04-18T08:08:06.650Z,8.96
2023-04-18T08:13:10.215Z,9.13
2023-04-18T08:18:06.543Z,9.97
2023-04-18T08:23:09.437Z,10.7
2023-04-18T08:28:08.860Z,11.45
2023-04-18T08:33:08.577Z,11.62
2023-04-18T08:38:07.740Z,11.63
2023-04-18T08:43:07.927Z,12.06
2023-04-18T08:48:06.193Z,12.62
2023-04-18T08:53:06.233Z,12.76
2023-04-18T08:58:07.421Z,13.08
2023-04-18T09:03:07.164Z,13.37
2023-04-18T09:08:16.244Z,13.28
2023-04-18T09:13:10.317Z,13.05
2023-04-18T09:18:06.804Z,12.89
2023-04-18T09:23:19.465Z,12.8
2023-04-18T09:28:06.808Z,12.87
2023-04-18T09:33:10.788Z,13.44
2023-04-18T09:38:06.785Z,14.09
2023-04-18T09:43:16.339Z,14.55
2023-04-18T09:48:06.209Z,14.48
2023-04-18T09:53:13.653Z,14.15
2023-04-18T09:58:09.116Z,13.8
2023-04-18T10:03:10.173Z,13.59
2023-04-18T10:08:11.380Z,13.58
2023-04-18T10:13:08.164Z,13.7
2023-04-18T10:18:09.573Z,13.86
2023-04-18T10:23:16.352Z,14.14
2023-04-18T10:28:06.952Z,14.4
2023-04-18T10:33:25.882Z,14.7
2023-04-18T10:38:07.200Z,15.02
2023-04-18T10:43:07.412Z,15.43
2023-04-18T10:48:17.478Z,15.7
2023-04-18T10:53:10.406Z,16.01
2023-04-18T10:58:07.097Z,16.43
2023-04-18T11:03:09.391Z,16.69
2023-04-18T11:08:24.885Z,16.88
2023-04-18T11:13:12.517Z,16.8
2023-04-18T11:18:10.521Z,16.44
2023-04-18T11:23:08.436Z,16.1
2023-04-18T11:36:00.431Z,15.61
2023-04-18T11:50:15.337Z,15.98
2023-04-18T11:54:46.556Z,15.91
2023-04-18T11:59:51.654Z,16.05
2023-04-18T12:05:09.284Z,16.49
2023-04-18T12:10:06.482Z,16.82
2023-04-18T12:29:30.033Z,17.7
2023-04-18T12:34:05.017Z,17.94
2023-04-18T12:39:06.183Z,17.67
2023-04-18T12:44:04.805Z,17.49
2023-04-18T12:49:06.219Z,17.37
2023-04-18T12:54:04.972Z,17.27
2023-04-18T12:59:07.101Z,17.34
2023-04-18T13:04:12.238Z,17.28
2023-04-18T13:09:04.947Z,17.25
2023-04-18T13:14:06.240Z,17.49
2023-04-18T13:19:05.631Z,17.68
2023-04-18T13:24:05.281Z,17.62
2023-04-18T13:29:05.347Z,17.68
2023-04-18T13:34:07.977Z,17.86
2023-04-18T13:39:05.239Z,18.09
2023-04-18T13:44:04.875Z,18.24
2023-04-18T13:49:05.009Z,18.3
2023-04-18T13:54:04.849Z,18.49
2023-04-18T13:59:04.984Z,18.56
2023-04-18T14:04:08.032Z,18.64
2023-04-18T14:09:05.489Z,18.67
2023-04-18T14:14:04.811Z,18.88
2023-04-18T14:19:05.242Z,18.95
2023-04-18T14:24:04.922Z,19.06
2023-04-18T14:29:05.892Z,19.06
2023-04-18T14:34:05.617Z,19.07
2023-04-18T14:39:05.743Z,19.06
2023-04-18T14:44:04.973Z,19.16
2023-04-18T14:49:05.015Z,19.31
2023-04-18T14:54:04.997Z,19.37
2023-04-18T14:59:05.893Z,19.44
2023-04-18T15:04:08.515Z,19.46
2023-04-18T15:09:10.532Z,19.38
2023-04-18T15:14:04.749Z,19.29
2023-04-18T15:19:05.019Z,19.3
2023-04-18T15:24:04.892Z,19.31
2023-04-18T15:29:05.255Z,19.27
2023-04-18T15:34:04.952Z,19.25
2023-04-18T15:39:09.274Z,19.34
2023-04-18T15:44:07.225Z,19.27
2023-04-18T15:49:05.262Z,19.16
2023-04-18T15:54:04.749Z,19.13
2023-04-18T15:59:08.632Z,19.08
2023-04-18T16:04:04.797Z,19.12
2023-04-18T16:09:06.812Z,19.06
2023-04-18T16:14:04.796Z,18.88
2023-04-18T16:19:06.725Z,18.77
2023-04-18T16:24:04.859Z,18.75
2023-04-18T16:29:06.166Z,18.71
2023-04-18T16:34:15.616Z,18.66
2023-04-18T16:39:05.983Z,18.61
2023-04-18T16:44:04.893Z,18.43
2023-04-18T16:49:05.175Z,18.29
2023-04-18T16:54:05.061Z,18.1
2023-04-18T16:59:07.379Z,17.96
2023-04-18T17:04:07.699Z,17.72
2023-04-18T17:09:17.126Z,17.57
2023-04-18T17:14:08.933Z,17.48
2023-04-18T17:19:04.830Z,17.24
2023-04-18T17:24:06.710Z,17.02
2023-04-18T17:29:04.973Z,16.82
2023-04-18T17:34:05.037Z,16.6
2023-04-18T17:39:17.861Z,16.45
2023-04-18T17:44:04.847Z,16.3
2023-04-18T17:49:05.078Z,16.14
2023-04-18T17:54:05.368Z,15.92
2023-04-18T17:59:05.236Z,15.75
2023-04-18T18:04:04.960Z,15.59
2023-04-18T18:09:13.404Z,15.39
2023-04-18T18:14:04.853Z,15.23
2023-04-18T18:19:07.879Z,15.05
2023-04-18T18:24:04.790Z,14.85
2023-04-18T18:29:09.357Z,14.66
2023-04-18T18:34:04.937Z,14.47
2023-04-18T18:39:14.573Z,14.24
2023-04-18T18:44:04.686Z,14.08
2023-04-18T18:49:04.948Z,13.91
2023-04-18T18:54:04.803Z,13.7
2023-04-18T18:59:04.781Z,13.49
2023-04-18T19:04:05.359Z,13.33
2023-04-18T19:09:05.301Z,13.18
2023-04-18T19:14:04.798Z,12.97
2023-04-18T19:19:04.925Z,12.78
2023-04-18T19:24:04.842Z,12.63
2023-04-18T19:29:04.794Z,12.52
2023-04-18T19:34:05.079Z,12.38
2023-04-18T19:39:04.904Z,12.26
2023-04-18T19:44:07.104Z,12.1
2023-04-18T19:49:06.547Z,11.99
2023-04-18T19:54:04.936Z,11.89
2023-04-18T19:59:06.097Z,11.74
2023-04-18T20:04:05.018Z,11.64
2023-04-18T20:09:05.711Z,11.54
2023-04-18T20:14:05.097Z,11.42
2023-04-18T20:19:05.714Z,11.36
2023-04-18T20:24:05.857Z,11.24
2023-04-18T20:29:06.048Z,11.14
2023-04-18T20:34:09.925Z,11.08
2023-04-18T20:39:06.210Z,10.98
2023-04-18T20:44:08.601Z,10.87
2023-04-18T20:49:04.819Z,10.79
2023-04-18T20:54:07.803Z,10.74
2023-04-18T20:59:04.789Z,10.64
2023-04-18T21:04:05.098Z,10.56
2023-04-18T21:09:09.155Z,10.5
2023-04-18T21:14:06.640Z,10.43
2023-04-18T21:19:04.931Z,10.38
2023-04-18T21:24:05.855Z,10.28
2023-04-18T21:29:07.810Z,10.25
2023-04-18T21:34:05.550Z,10.18
2023-04-18T21:39:05.279Z,10.1
2023-04-18T21:44:06.113Z,10.02
2023-04-18T21:49:04.958Z,9.98
2023-04-18T21:54:04.954Z,9.9
2023-04-18T21:59:04.825Z,9.83
2023-04-18T22:04:05.467Z,9.79
2023-04-18T22:09:11.413Z,9.7
2023-04-18T22:14:05.901Z,9.66
2023-04-18T22:19:06.094Z,9.64
2023-04-18T22:24:04.701Z,9.62
2023-04-18T22:29:06.408Z,9.55
2023-04-18T22:34:07.140Z,9.5
2023-04-18T22:39:09.596Z,9.45
2023-04-18T22:44:04.771Z,9.43
2023-04-18T22:49:05.517Z,9.4
2023-04-18T22:54:04.571Z,9.35
2023-04-18T22:59:04.661Z,9.28
2023-04-18T23:04:05.093Z,9.25
2023-04-18T23:09:04.814Z,9.2
2023-04-18T23:14:07.658Z,9.19
2023-04-18T23:19:04.783Z,9.14
2023-04-18T23:24:04.750Z,9.09
2023-04-18T23:29:04.631Z,9.07
2023-04-18T23:34:04.661Z,9.04
2023-04-18T23:39:04.745Z,9.01
2023-04-18T23:44:04.728Z,8.96
2023-04-18T23:49:04.796Z,8.93
2023-04-18T23:54:07.215Z,8.92
2023-04-18T23:59:07.279Z,8.88
